KFHU Airport (Sierra Vista Muni-Libby Aaf) Information

FAA: FHU - ICAO: KFHU

KFHU Airport Location

State Arizona
County Cochise
City Fort Huachuca Sierra Vista
KFHU Airport is 3 miles north of Fort Huachuca Sierra Vista, AZ.
Latitude 31-35-18.5000N
Longitude 110-20-39.8000W
Elevation 4,719ft

KFHU Airport METARs

METAR KFHU 032024Z AUTO 16004KT 10SM CLR 20/00 A3012 RMK AO2 SLP149 57023
Altimeter 30.12"
Temperature 20.0°C (68.0°F)
Wind 160° at 4KT
Clouds Skies are clear.
Visibility 10.0mi
Time observed: 2021-12-03T20:24:00Z

KFHU Airport Details

Status Operational
Activation November 1972
Ownership Military - Army
Usage Public
Chart PHOENIX
ATC on-site Yes
Beacon schedule sunset-sunrise
Beacon color clear green

KFHU Airport Contacts

Owner US ARMY INTELLIGENCE CTR
Owner address FORT HUACHUCA, FORT HUACHUCA, AZ 85613
Owner phone 520-538-2860
Manager DUSTIN WINDLE
Manager address 6639 S. PIPER LN, FLAGSTAFF, AZ 86001-3118
Manager phone 928-214-6900

KFHU Airport (Sierra Vista Muni-Libby Aaf) Radio Frequencies

KFHU (Airport) Radio Frequencies

UNICOM 122.95
Common traffic advisory frequency (CTAF) 124.95